sensor_id;sensor_type;location;lat;lon;timestamp;P1;durP1;ratioP1;P2;durP2;ratioP2
10687;SDS011;5392;42.688;23.298;2023-07-20T00:02:17;3.60;;;0.50;;
10687;SDS011;5392;42.688;23.298;2023-07-20T00:04:44;4.78;;;0.60;;
10687;SDS011;5392;42.688;23.298;2023-07-20T00:07:11;2.10;;;0.50;;
10687;SDS011;5392;42.688;23.298;2023-07-20T00:09:37;5.00;;;0.50;;
10687;SDS011;5392;42.688;23.298;2023-07-20T00:12:04;5.18;;;0.50;;
10687;SDS011;5392;42.688;23.298;2023-07-20T00:14:31;2.05;;;0.40;;
10687;SDS011;5392;42.688;23.298;2023-07-20T00:16:58;5.55;;;0.47;;
10687;SDS011;5392;42.688;23.298;2023-07-20T00:19:26;4.57;;;0.50;;
10687;SDS011;5392;42.688;23.298;2023-07-20T00:21:54;5.63;;;0.60;;
10687;SDS011;5392;42.688;23.298;2023-07-20T00:24:24;3.47;;;0.50;;
10687;SDS011;5392;42.688;23.298;2023-07-20T00:26:50;3.08;;;0.43;;
10687;SDS011;5392;42.688;23.298;2023-07-20T00:29:17;2.53;;;0.45;;
10687;SDS011;5392;42.688;23.298;2023-07-20T00:31:44;2.97;;;0.50;;
10687;SDS011;5392;42.688;23.298;2023-07-20T00:34:13;3.22;;;0.50;;
10687;SDS011;5392;42.688;23.298;2023-07-20T00:36:39;4.75;;;0.40;;
10687;SDS011;5392;42.688;23.298;2023-07-20T00:39:06;6.40;;;0.60;;
10687;SDS011;5392;42.688;23.298;2023-07-20T00:41:33;2.72;;;0.40;;
10687;SDS011;5392;42.688;23.298;2023-07-20T00:44:00;8.25;;;0.50;;
10687;SDS011;5392;42.688;23.298;2023-07-20T00:46:26;6.18;;;0.60;;
10687;SDS011;5392;42.688;23.298;2023-07-20T00:48:53;4.15;;;0.50;;
10687;SDS011;5392;42.688;23.298;2023-07-20T00:51:21;3.35;;;0.55;;
10687;SDS011;5392;42.688;23.298;2023-07-20T00:53:49;4.38;;;0.60;;
10687;SDS011;5392;42.688;23.298;2023-07-20T00:56:16;4.18;;;0.50;;
10687;SDS011;5392;42.688;23.298;2023-07-20T00:58:43;5.50;;;0.60;;
10687;SDS011;5392;42.688;23.298;2023-07-20T01:01:10;6.78;;;0.50;;
10687;SDS011;5392;42.688;23.298;2023-07-20T01:03:37;4.80;;;0.70;;
10687;SDS011;5392;42.688;23.298;2023-07-20T01:09:11;6.57;;;0.60;;
10687;SDS011;5392;42.688;23.298;2023-07-20T01:11:45;5.22;;;0.70;;
10687;SDS011;5392;42.688;23.298;2023-07-20T01:14:26;2.90;;;0.60;;
10687;SDS011;5392;42.688;23.298;2023-07-20T01:16:53;5.15;;;0.60;;
10687;SDS011;5392;42.688;23.298;2023-07-20T01:19:20;4.43;;;0.52;;
10687;SDS011;5392;42.688;23.298;2023-07-20T01:24:39;4.05;;;0.50;;
10687;SDS011;5392;42.688;23.298;2023-07-20T01:31:36;5.57;;;0.50;;
10687;SDS011;5392;42.688;23.298;2023-07-20T01:33:46;2.45;;;0.50;;
10687;SDS011;5392;42.688;23.298;2023-07-20T01:36:14;5.80;;;0.50;;
10687;SDS011;5392;42.688;23.298;2023-07-20T01:38:44;3.92;;;0.73;;
10687;SDS011;5392;42.688;23.298;2023-07-20T01:41:12;3.30;;;0.80;;
10687;SDS011;5392;42.688;23.298;2023-07-20T01:43:40;3.15;;;0.80;;
10687;SDS011;5392;42.688;23.298;2023-07-20T01:46:07;7.65;;;1.20;;
10687;SDS011;5392;42.688;23.298;2023-07-20T01:48:33;5.07;;;0.65;;
10687;SDS011;5392;42.688;23.298;2023-07-20T01:51:00;3.35;;;0.90;;
10687;SDS011;5392;42.688;23.298;2023-07-20T01:53:27;6.30;;;0.70;;
10687;SDS011;5392;42.688;23.298;2023-07-20T01:55:53;2.67;;;0.70;;
10687;SDS011;5392;42.688;23.298;2023-07-20T01:58:20;6.53;;;0.80;;
10687;SDS011;5392;42.688;23.298;2023-07-20T02:00:47;5.13;;;0.60;;
10687;SDS011;5392;42.688;23.298;2023-07-20T02:03:14;3.53;;;0.60;;
10687;SDS011;5392;42.688;23.298;2023-07-20T02:05:45;6.25;;;0.63;;
10687;SDS011;5392;42.688;23.298;2023-07-20T02:08:11;4.28;;;0.73;;
10687;SDS011;5392;42.688;23.298;2023-07-20T02:10:38;1.25;;;0.73;;
10687;SDS011;5392;42.688;23.298;2023-07-20T02:13:05;5.40;;;0.60;;
10687;SDS011;5392;42.688;23.298;2023-07-20T02:15:31;2.92;;;0.60;;
10687;SDS011;5392;42.688;23.298;2023-07-20T02:17:58;5.25;;;0.60;;
10687;SDS011;5392;42.688;23.298;2023-07-20T02:20:25;5.50;;;0.50;;
10687;SDS011;5392;42.688;23.298;2023-07-20T02:22:51;4.65;;;0.80;;
10687;SDS011;5392;42.688;23.298;2023-07-20T02:25:18;5.85;;;0.60;;
10687;SDS011;5392;42.688;23.298;2023-07-20T02:27:45;4.05;;;0.80;;
10687;SDS011;5392;42.688;23.298;2023-07-20T02:30:11;2.78;;;0.65;;
10687;SDS011;5392;42.688;23.298;2023-07-20T02:32:38;4.13;;;0.70;;
10687;SDS011;5392;42.688;23.298;2023-07-20T02:35:05;6.03;;;0.57;;
10687;SDS011;5392;42.688;23.298;2023-07-20T02:37:32;4.35;;;0.52;;
10687;SDS011;5392;42.688;23.298;2023-07-20T02:39:59;3.92;;;0.60;;
10687;SDS011;5392;42.688;23.298;2023-07-20T02:42:26;3.55;;;0.52;;
10687;SDS011;5392;42.688;23.298;2023-07-20T02:44:54;2.10;;;0.60;;
10687;SDS011;5392;42.688;23.298;2023-07-20T02:47:20;6.47;;;0.50;;
10687;SDS011;5392;42.688;23.298;2023-07-20T02:49:47;6.38;;;0.60;;
10687;SDS011;5392;42.688;23.298;2023-07-20T02:52:14;8.05;;;0.80;;
10687;SDS011;5392;42.688;23.298;2023-07-20T02:54:40;5.60;;;0.60;;
10687;SDS011;5392;42.688;23.298;2023-07-20T02:57:07;6.97;;;0.82;;
10687;SDS011;5392;42.688;23.298;2023-07-20T02:59:34;7.45;;;0.60;;
10687;SDS011;5392;42.688;23.298;2023-07-20T03:02:00;6.13;;;0.70;;
10687;SDS011;5392;42.688;23.298;2023-07-20T03:04:27;5.07;;;0.80;;
10687;SDS011;5392;42.688;23.298;2023-07-20T03:06:54;2.60;;;0.50;;
10687;SDS011;5392;42.688;23.298;2023-07-20T03:09:21;4.82;;;0.60;;
10687;SDS011;5392;42.688;23.298;2023-07-20T03:11:49;2.53;;;0.52;;
10687;SDS011;5392;42.688;23.298;2023-07-20T03:14:16;5.03;;;0.75;;
10687;SDS011;5392;42.688;23.298;2023-07-20T03:16:43;5.28;;;0.55;;
10687;SDS011;5392;42.688;23.298;2023-07-20T03:19:09;2.15;;;0.60;;
10687;SDS011;5392;42.688;23.298;2023-07-20T03:21:36;2.97;;;0.73;;
10687;SDS011;5392;42.688;23.298;2023-07-20T03:24:07;2.58;;;0.70;;
10687;SDS011;5392;42.688;23.298;2023-07-20T03:26:35;2.25;;;0.60;;
10687;SDS011;5392;42.688;23.298;2023-07-20T03:29:03;10.05;;;0.70;;
10687;SDS011;5392;42.688;23.298;2023-07-20T03:31:31;2.50;;;0.80;;
10687;SDS011;5392;42.688;23.298;2023-07-20T03:33:57;3.63;;;0.80;;
10687;SDS011;5392;42.688;23.298;2023-07-20T03:36:24;10.02;;;1.40;;
10687;SDS011;5392;42.688;23.298;2023-07-20T03:38:51;5.93;;;0.93;;
10687;SDS011;5392;42.688;23.298;2023-07-20T03:41:18;5.10;;;0.65;;
10687;SDS011;5392;42.688;23.298;2023-07-20T03:43:46;7.90;;;1.13;;
10687;SDS011;5392;42.688;23.298;2023-07-20T03:46:12;9.88;;;1.00;;
10687;SDS011;5392;42.688;23.298;2023-07-20T03:48:39;5.78;;;0.70;;
10687;SDS011;5392;42.688;23.298;2023-07-20T03:51:06;6.53;;;0.98;;
10687;SDS011;5392;42.688;23.298;2023-07-20T03:53:32;11.35;;;1.70;;
10687;SDS011;5392;42.688;23.298;2023-07-20T03:55:59;9.23;;;1.33;;
10687;SDS011;5392;42.688;23.298;2023-07-20T03:58:26;7.85;;;1.20;;
10687;SDS011;5392;42.688;23.298;2023-07-20T04:00:53;6.82;;;1.00;;
10687;SDS011;5392;42.688;23.298;2023-07-20T04:03:19;7.05;;;1.10;;
10687;SDS011;5392;42.688;23.298;2023-07-20T04:05:46;9.45;;;1.58;;
10687;SDS011;5392;42.688;23.298;2023-07-20T04:08:13;9.20;;;1.88;;
10687;SDS011;5392;42.688;23.298;2023-07-20T04:10:43;8.45;;;1.65;;
10687;SDS011;5392;42.688;23.298;2023-07-20T04:13:10;7.13;;;1.45;;
10687;SDS011;5392;42.688;23.298;2023-07-20T04:15:37;9.93;;;1.70;;
10687;SDS011;5392;42.688;23.298;2023-07-20T04:18:04;7.25;;;1.52;;
10687;SDS011;5392;42.688;23.298;2023-07-20T04:20:31;5.70;;;0.82;;
10687;SDS011;5392;42.688;23.298;2023-07-20T04:22:58;11.40;;;1.50;;
10687;SDS011;5392;42.688;23.298;2023-07-20T04:25:24;6.18;;;1.10;;
10687;SDS011;5392;42.688;23.298;2023-07-20T04:27:52;7.60;;;1.50;;
10687;SDS011;5392;42.688;23.298;2023-07-20T04:30:19;9.05;;;1.27;;
10687;SDS011;5392;42.688;23.298;2023-07-20T04:32:48;8.55;;;1.52;;
10687;SDS011;5392;42.688;23.298;2023-07-20T04:35:17;6.30;;;0.80;;
10687;SDS011;5392;42.688;23.298;2023-07-20T04:38:00;7.00;;;1.15;;
10687;SDS011;5392;42.688;23.298;2023-07-20T04:40:26;5.05;;;1.10;;
10687;SDS011;5392;42.688;23.298;2023-07-20T04:42:53;6.63;;;0.90;;
10687;SDS011;5392;42.688;23.298;2023-07-20T04:45:20;8.50;;;1.00;;
10687;SDS011;5392;42.688;23.298;2023-07-20T04:47:49;5.25;;;0.63;;
10687;SDS011;5392;42.688;23.298;2023-07-20T04:50:17;3.80;;;0.73;;
10687;SDS011;5392;42.688;23.298;2023-07-20T04:52:44;8.27;;;0.80;;
10687;SDS011;5392;42.688;23.298;2023-07-20T04:55:12;5.45;;;0.98;;
10687;SDS011;5392;42.688;23.298;2023-07-20T04:57:39;8.13;;;0.80;;
10687;SDS011;5392;42.688;23.298;2023-07-20T05:00:06;6.22;;;0.73;;
10687;SDS011;5392;42.688;23.298;2023-07-20T05:02:33;3.38;;;0.80;;
10687;SDS011;5392;42.688;23.298;2023-07-20T05:04:59;7.07;;;0.80;;
10687;SDS011;5392;42.688;23.298;2023-07-20T05:07:26;5.10;;;0.70;;
10687;SDS011;5392;42.688;23.298;2023-07-20T05:09:52;2.72;;;0.75;;
10687;SDS011;5392;42.688;23.298;2023-07-20T05:12:19;4.88;;;1.00;;
10687;SDS011;5392;42.688;23.298;2023-07-20T05:14:47;7.38;;;0.85;;
10687;SDS011;5392;42.688;23.298;2023-07-20T05:17:13;5.38;;;0.77;;
10687;SDS011;5392;42.688;23.298;2023-07-20T05:19:40;4.13;;;0.85;;
10687;SDS011;5392;42.688;23.298;2023-07-20T05:22:10;9.15;;;1.63;;
10687;SDS011;5392;42.688;23.298;2023-07-20T05:24:38;4.10;;;0.82;;
10687;SDS011;5392;42.688;23.298;2023-07-20T05:27:04;8.30;;;0.80;;
10687;SDS011;5392;42.688;23.298;2023-07-20T05:29:31;6.00;;;0.88;;
10687;SDS011;5392;42.688;23.298;2023-07-20T05:31:59;23.65;;;1.90;;
10687;SDS011;5392;42.688;23.298;2023-07-20T05:34:26;16.55;;;1.52;;
10687;SDS011;5392;42.688;23.298;2023-07-20T05:37:08;12.13;;;1.35;;
10687;SDS011;5392;42.688;23.298;2023-07-20T05:39:37;23.45;;;2.03;;
10687;SDS011;5392;42.688;23.298;2023-07-20T05:42:04;5.32;;;0.75;;
10687;SDS011;5392;42.688;23.298;2023-07-20T05:44:30;5.63;;;1.15;;
10687;SDS011;5392;42.688;23.298;2023-07-20T05:46:57;1.88;;;0.60;;
10687;SDS011;5392;42.688;23.298;2023-07-20T05:49:24;3.28;;;0.70;;
10687;SDS011;5392;42.688;23.298;2023-07-20T05:51:51;5.65;;;0.63;;
10687;SDS011;5392;42.688;23.298;2023-07-20T05:54:18;7.63;;;0.98;;
10687;SDS011;5392;42.688;23.298;2023-07-20T05:56:45;5.85;;;0.75;;
10687;SDS011;5392;42.688;23.298;2023-07-20T05:59:13;9.55;;;0.95;;
10687;SDS011;5392;42.688;23.298;2023-07-20T06:01:39;5.90;;;1.00;;
10687;SDS011;5392;42.688;23.298;2023-07-20T06:04:06;7.63;;;0.90;;
10687;SDS011;5392;42.688;23.298;2023-07-20T06:06:33;4.25;;;1.10;;
10687;SDS011;5392;42.688;23.298;2023-07-20T06:09:00;4.20;;;1.25;;
10687;SDS011;5392;42.688;23.298;2023-07-20T06:11:30;6.88;;;1.50;;
10687;SDS011;5392;42.688;23.298;2023-07-20T06:13:57;11.55;;;2.10;;
10687;SDS011;5392;42.688;23.298;2023-07-20T06:16:23;15.00;;;1.92;;
10687;SDS011;5392;42.688;23.298;2023-07-20T06:18:51;9.32;;;1.33;;
10687;SDS011;5392;42.688;23.298;2023-07-20T06:21:18;7.68;;;0.90;;
10687;SDS011;5392;42.688;23.298;2023-07-20T06:23:44;5.90;;;1.20;;
10687;SDS011;5392;42.688;23.298;2023-07-20T06:26:12;6.85;;;1.20;;
10687;SDS011;5392;42.688;23.298;2023-07-20T06:28:39;9.70;;;1.48;;
10687;SDS011;5392;42.688;23.298;2023-07-20T06:31:05;8.80;;;1.42;;
10687;SDS011;5392;42.688;23.298;2023-07-20T06:33:32;4.38;;;1.05;;
10687;SDS011;5392;42.688;23.298;2023-07-20T06:35:59;7.25;;;1.38;;
10687;SDS011;5392;42.688;23.298;2023-07-20T06:38:25;6.03;;;1.05;;
10687;SDS011;5392;42.688;23.298;2023-07-20T06:40:55;9.05;;;1.58;;
10687;SDS011;5392;42.688;23.298;2023-07-20T06:43:22;5.00;;;1.40;;
10687;SDS011;5392;42.688;23.298;2023-07-20T06:45:52;5.18;;;1.45;;
10687;SDS011;5392;42.688;23.298;2023-07-20T06:48:20;6.57;;;1.73;;
10687;SDS011;5392;42.688;23.298;2023-07-20T06:50:48;8.18;;;1.38;;
10687;SDS011;5392;42.688;23.298;2023-07-20T06:53:14;15.27;;;2.33;;
10687;SDS011;5392;42.688;23.298;2023-07-20T06:55:44;13.25;;;2.38;;
10687;SDS011;5392;42.688;23.298;2023-07-20T06:58:13;8.93;;;1.85;;
10687;SDS011;5392;42.688;23.298;2023-07-20T07:00:40;9.68;;;1.40;;
10687;SDS011;5392;42.688;23.298;2023-07-20T07:03:07;4.90;;;1.45;;
10687;SDS011;5392;42.688;23.298;2023-07-20T07:05:37;7.25;;;1.63;;
10687;SDS011;5392;42.688;23.298;2023-07-20T07:08:04;6.82;;;1.60;;
10687;SDS011;5392;42.688;23.298;2023-07-20T07:10:32;6.30;;;1.35;;
10687;SDS011;5392;42.688;23.298;2023-07-20T07:12:59;7.45;;;1.65;;
10687;SDS011;5392;42.688;23.298;2023-07-20T07:15:26;4.90;;;1.27;;
10687;SDS011;5392;42.688;23.298;2023-07-20T07:17:54;4.38;;;0.90;;
10687;SDS011;5392;42.688;23.298;2023-07-20T07:20:21;5.32;;;1.10;;
10687;SDS011;5392;42.688;23.298;2023-07-20T07:22:49;5.47;;;1.40;;
10687;SDS011;5392;42.688;23.298;2023-07-20T07:25:21;5.68;;;1.40;;
10687;SDS011;5392;42.688;23.298;2023-07-20T07:27:49;9.52;;;1.48;;
10687;SDS011;5392;42.688;23.298;2023-07-20T07:30:16;5.18;;;1.30;;
10687;SDS011;5392;42.688;23.298;2023-07-20T07:32:42;6.13;;;1.58;;
10687;SDS011;5392;42.688;23.298;2023-07-20T07:35:09;7.72;;;1.30;;
10687;SDS011;5392;42.688;23.298;2023-07-20T07:37:36;4.68;;;1.48;;
10687;SDS011;5392;42.688;23.298;2023-07-20T07:40:17;6.43;;;1.35;;
10687;SDS011;5392;42.688;23.298;2023-07-20T07:42:44;6.47;;;1.45;;
10687;SDS011;5392;42.688;23.298;2023-07-20T07:45:11;5.75;;;1.00;;
10687;SDS011;5392;42.688;23.298;2023-07-20T07:47:37;7.75;;;1.05;;
10687;SDS011;5392;42.688;23.298;2023-07-20T07:50:05;7.00;;;1.20;;
10687;SDS011;5392;42.688;23.298;2023-07-20T07:52:32;9.05;;;1.38;;
10687;SDS011;5392;42.688;23.298;2023-07-20T07:54:58;10.68;;;1.52;;
10687;SDS011;5392;42.688;23.298;2023-07-20T07:57:26;6.88;;;1.25;;
10687;SDS011;5392;42.688;23.298;2023-07-20T07:59:53;6.25;;;1.23;;
10687;SDS011;5392;42.688;23.298;2023-07-20T08:02:19;7.40;;;1.10;;
10687;SDS011;5392;42.688;23.298;2023-07-20T08:04:46;5.55;;;1.17;;
10687;SDS011;5392;42.688;23.298;2023-07-20T08:07:13;6.72;;;1.20;;
10687;SDS011;5392;42.688;23.298;2023-07-20T08:09:39;4.88;;;1.70;;
10687;SDS011;5392;42.688;23.298;2023-07-20T08:12:06;8.25;;;1.77;;
10687;SDS011;5392;42.688;23.298;2023-07-20T08:14:33;3.83;;;1.10;;
10687;SDS011;5392;42.688;23.298;2023-07-20T08:17:00;3.15;;;1.55;;
10687;SDS011;5392;42.688;23.298;2023-07-20T08:19:27;8.18;;;0.88;;
10687;SDS011;5392;42.688;23.298;2023-07-20T08:21:54;6.25;;;1.02;;
10687;SDS011;5392;42.688;23.298;2023-07-20T08:24:20;7.60;;;0.95;;
10687;SDS011;5392;42.688;23.298;2023-07-20T08:26:47;7.30;;;0.60;;
10687;SDS011;5392;42.688;23.298;2023-07-20T08:29:14;6.97;;;0.90;;
10687;SDS011;5392;42.688;23.298;2023-07-20T08:31:40;9.55;;;0.88;;
10687;SDS011;5392;42.688;23.298;2023-07-20T08:34:07;4.40;;;0.63;;
10687;SDS011;5392;42.688;23.298;2023-07-20T08:36:49;8.10;;;1.25;;
10687;SDS011;5392;42.688;23.298;2023-07-20T08:39:16;5.03;;;1.20;;
10687;SDS011;5392;42.688;23.298;2023-07-20T08:41:43;4.78;;;0.88;;
10687;SDS011;5392;42.688;23.298;2023-07-20T08:44:10;7.05;;;0.90;;
10687;SDS011;5392;42.688;23.298;2023-07-20T08:46:38;5.85;;;0.80;;
10687;SDS011;5392;42.688;23.298;2023-07-20T08:49:06;6.85;;;0.50;;
10687;SDS011;5392;42.688;23.298;2023-07-20T08:51:33;6.57;;;0.68;;
10687;SDS011;5392;42.688;23.298;2023-07-20T08:54:02;6.35;;;0.75;;
10687;SDS011;5392;42.688;23.298;2023-07-20T08:56:29;5.35;;;0.65;;
10687;SDS011;5392;42.688;23.298;2023-07-20T08:58:57;7.57;;;0.73;;
10687;SDS011;5392;42.688;23.298;2023-07-20T09:01:25;4.45;;;0.50;;
10687;SDS011;5392;42.688;23.298;2023-07-20T09:03:53;4.38;;;0.50;;
10687;SDS011;5392;42.688;23.298;2023-07-20T09:06:20;5.80;;;0.60;;
10687;SDS011;5392;42.688;23.298;2023-07-20T09:08:46;4.85;;;0.60;;
10687;SDS011;5392;42.688;23.298;2023-07-20T09:11:13;4.57;;;0.65;;
10687;SDS011;5392;42.688;23.298;2023-07-20T09:13:41;11.52;;;1.10;;
10687;SDS011;5392;42.688;23.298;2023-07-20T09:16:08;6.05;;;0.68;;
10687;SDS011;5392;42.688;23.298;2023-07-20T09:18:35;5.95;;;0.60;;
10687;SDS011;5392;42.688;23.298;2023-07-20T09:21:03;5.22;;;0.60;;
10687;SDS011;5392;42.688;23.298;2023-07-20T09:23:32;7.32;;;0.60;;
10687;SDS011;5392;42.688;23.298;2023-07-20T09:26:00;4.03;;;0.50;;
10687;SDS011;5392;42.688;23.298;2023-07-20T09:28:47;2.60;;;0.80;;
10687;SDS011;5392;42.688;23.298;2023-07-20T09:31:23;3.50;;;0.50;;
10687;SDS011;5392;42.688;23.298;2023-07-20T09:33:50;7.88;;;0.50;;
10687;SDS011;5392;42.688;23.298;2023-07-20T09:36:21;5.38;;;0.60;;
10687;SDS011;5392;42.688;23.298;2023-07-20T09:39:08;5.70;;;0.60;;
10687;SDS011;5392;42.688;23.298;2023-07-20T09:41:41;6.47;;;0.50;;
10687;SDS011;5392;42.688;23.298;2023-07-20T09:44:15;3.33;;;0.50;;
10687;SDS011;5392;42.688;23.298;2023-07-20T09:46:45;3.80;;;0.55;;
10687;SDS011;5392;42.688;23.298;2023-07-20T09:49:19;2.63;;;0.60;;
10687;SDS011;5392;42.688;23.298;2023-07-20T09:51:49;4.47;;;0.65;;
10687;SDS011;5392;42.688;23.298;2023-07-20T09:54:16;8.45;;;0.50;;
10687;SDS011;5392;42.688;23.298;2023-07-20T09:56:44;2.05;;;0.50;;
10687;SDS011;5392;42.688;23.298;2023-07-20T09:59:13;4.50;;;0.68;;
10687;SDS011;5392;42.688;23.298;2023-07-20T10:01:41;6.63;;;0.60;;
10687;SDS011;5392;42.688;23.298;2023-07-20T10:04:10;6.57;;;0.60;;
10687;SDS011;5392;42.688;23.298;2023-07-20T10:06:39;6.30;;;0.47;;
10687;SDS011;5392;42.688;23.298;2023-07-20T10:09:09;7.60;;;1.70;;
10687;SDS011;5392;42.688;23.298;2023-07-20T10:11:39;7.30;;;0.70;;
10687;SDS011;5392;42.688;23.298;2023-07-20T10:14:09;4.00;;;0.50;;
10687;SDS011;5392;42.688;23.298;2023-07-20T10:16:42;3.15;;;0.65;;
10687;SDS011;5392;42.688;23.298;2023-07-20T10:22:17;8.25;;;0.70;;
10687;SDS011;5392;42.688;23.298;2023-07-20T10:24:51;11.65;;;0.75;;
10687;SDS011;5392;42.688;23.298;2023-07-20T10:27:20;9.55;;;1.10;;
10687;SDS011;5392;42.688;23.298;2023-07-20T10:29:47;5.78;;;0.70;;
10687;SDS011;5392;42.688;23.298;2023-07-20T10:32:15;8.13;;;0.70;;
10687;SDS011;5392;42.688;23.298;2023-07-20T10:34:41;5.47;;;0.60;;
10687;SDS011;5392;42.688;23.298;2023-07-20T10:37:08;3.72;;;0.50;;
10687;SDS011;5392;42.688;23.298;2023-07-20T10:39:35;8.30;;;0.77;;
10687;SDS011;5392;42.688;23.298;2023-07-20T10:42:08;5.95;;;0.63;;
10687;SDS011;5392;42.688;23.298;2023-07-20T10:44:36;6.93;;;0.60;;
10687;SDS011;5392;42.688;23.298;2023-07-20T10:47:11;4.80;;;0.60;;
10687;SDS011;5392;42.688;23.298;2023-07-20T10:49:58;7.97;;;0.50;;
10687;SDS011;5392;42.688;23.298;2023-07-20T10:52:36;5.97;;;1.00;;
10687;SDS011;5392;42.688;23.298;2023-07-20T10:55:15;6.32;;;0.70;;
10687;SDS011;5392;42.688;23.298;2023-07-20T10:57:43;8.00;;;1.10;;
10687;SDS011;5392;42.688;23.298;2023-07-20T11:00:12;5.70;;;0.77;;
10687;SDS011;5392;42.688;23.298;2023-07-20T11:02:44;4.55;;;0.60;;
10687;SDS011;5392;42.688;23.298;2023-07-20T11:05:32;3.88;;;0.50;;
10687;SDS011;5392;42.688;23.298;2023-07-20T11:08:04;3.95;;;0.70;;
10687;SDS011;5392;42.688;23.298;2023-07-20T11:10:32;3.17;;;0.40;;
10687;SDS011;5392;42.688;23.298;2023-07-20T11:13:17;2.95;;;0.40;;
10687;SDS011;5392;42.688;23.298;2023-07-20T11:15:45;4.10;;;0.40;;
10687;SDS011;5392;42.688;23.298;2023-07-20T11:18:14;2.70;;;0.50;;
10687;SDS011;5392;42.688;23.298;2023-07-20T11:20:41;2.42;;;0.50;;
10687;SDS011;5392;42.688;23.298;2023-07-20T11:23:08;5.68;;;0.50;;
10687;SDS011;5392;42.688;23.298;2023-07-20T11:25:36;7.47;;;0.70;;
10687;SDS011;5392;42.688;23.298;2023-07-20T11:28:07;2.75;;;0.50;;
10687;SDS011;5392;42.688;23.298;2023-07-20T11:30:37;3.63;;;0.60;;
10687;SDS011;5392;42.688;23.298;2023-07-20T11:33:05;3.63;;;0.60;;
10687;SDS011;5392;42.688;23.298;2023-07-20T11:35:35;3.03;;;0.60;;
10687;SDS011;5392;42.688;23.298;2023-07-20T11:38:09;2.72;;;0.60;;
10687;SDS011;5392;42.688;23.298;2023-07-20T11:40:35;4.80;;;0.88;;
10687;SDS011;5392;42.688;23.298;2023-07-20T11:43:02;6.78;;;0.95;;
10687;SDS011;5392;42.688;23.298;2023-07-20T11:45:32;4.25;;;1.23;;
10687;SDS011;5392;42.688;23.298;2023-07-20T11:47:59;2.40;;;0.80;;
10687;SDS011;5392;42.688;23.298;2023-07-20T11:50:26;4.78;;;0.90;;
10687;SDS011;5392;42.688;23.298;2023-07-20T11:52:53;4.55;;;0.95;;
10687;SDS011;5392;42.688;23.298;2023-07-20T11:55:20;8.27;;;1.00;;
10687;SDS011;5392;42.688;23.298;2023-07-20T12:00:32;4.03;;;0.90;;
10687;SDS011;5392;42.688;23.298;2023-07-20T12:03:00;5.35;;;0.80;;
10687;SDS011;5392;42.688;23.298;2023-07-20T12:05:27;2.47;;;0.70;;
10687;SDS011;5392;42.688;23.298;2023-07-20T12:07:54;3.17;;;1.20;;
10687;SDS011;5392;42.688;23.298;2023-07-20T12:10:28;5.20;;;0.80;;
10687;SDS011;5392;42.688;23.298;2023-07-20T12:13:00;3.05;;;0.70;;
10687;SDS011;5392;42.688;23.298;2023-07-20T12:15:29;2.35;;;0.80;;
10687;SDS011;5392;42.688;23.298;2023-07-20T12:17:58;3.90;;;0.70;;
10687;SDS011;5392;42.688;23.298;2023-07-20T12:20:30;6.38;;;1.10;;
10687;SDS011;5392;42.688;23.298;2023-07-20T12:23:07;3.45;;;0.77;;
10687;SDS011;5392;42.688;23.298;2023-07-20T12:25:39;1.88;;;0.60;;
10687;SDS011;5392;42.688;23.298;2023-07-20T12:28:10;8.13;;;1.65;;
10687;SDS011;5392;42.688;23.298;2023-07-20T12:30:38;3.75;;;0.63;;
10687;SDS011;5392;42.688;23.298;2023-07-20T12:33:06;5.22;;;0.68;;
10687;SDS011;5392;42.688;23.298;2023-07-20T12:35:33;2.70;;;0.60;;
10687;SDS011;5392;42.688;23.298;2023-07-20T12:38:00;5.50;;;0.70;;
10687;SDS011;5392;42.688;23.298;2023-07-20T12:40:27;4.07;;;0.70;;
10687;SDS011;5392;42.688;23.298;2023-07-20T12:42:54;6.13;;;0.70;;
10687;SDS011;5392;42.688;23.298;2023-07-20T12:45:21;3.47;;;0.50;;
10687;SDS011;5392;42.688;23.298;2023-07-20T12:47:48;4.38;;;0.70;;
10687;SDS011;5392;42.688;23.298;2023-07-20T12:50:15;1.75;;;0.60;;
10687;SDS011;5392;42.688;23.298;2023-07-20T12:52:42;5.07;;;0.65;;
10687;SDS011;5392;42.688;23.298;2023-07-20T12:55:09;5.60;;;0.73;;
10687;SDS011;5392;42.688;23.298;2023-07-20T12:57:36;3.38;;;0.63;;
10687;SDS011;5392;42.688;23.298;2023-07-20T13:00:07;2.92;;;0.50;;
10687;SDS011;5392;42.688;23.298;2023-07-20T13:02:35;2.92;;;0.60;;
10687;SDS011;5392;42.688;23.298;2023-07-20T13:05:02;3.85;;;0.50;;
10687;SDS011;5392;42.688;23.298;2023-07-20T13:07:33;1.60;;;0.70;;
10687;SDS011;5392;42.688;23.298;2023-07-20T13:10:05;4.35;;;0.60;;
10687;SDS011;5392;42.688;23.298;2023-07-20T13:12:33;3.83;;;0.70;;
10687;SDS011;5392;42.688;23.298;2023-07-20T13:15:02;3.83;;;0.75;;
10687;SDS011;5392;42.688;23.298;2023-07-20T13:17:32;4.90;;;0.60;;
10687;SDS011;5392;42.688;23.298;2023-07-20T13:20:03;5.07;;;0.50;;
10687;SDS011;5392;42.688;23.298;2023-07-20T13:22:33;4.15;;;0.60;;
10687;SDS011;5392;42.688;23.298;2023-07-20T13:25:03;5.28;;;0.80;;
10687;SDS011;5392;42.688;23.298;2023-07-20T13:27:30;2.85;;;0.60;;
10687;SDS011;5392;42.688;23.298;2023-07-20T13:29:58;4.72;;;0.50;;
10687;SDS011;5392;42.688;23.298;2023-07-20T13:32:26;7.50;;;0.70;;
10687;SDS011;5392;42.688;23.298;2023-07-20T13:34:57;4.68;;;0.70;;
10687;SDS011;5392;42.688;23.298;2023-07-20T13:37:23;7.85;;;0.50;;
10687;SDS011;5392;42.688;23.298;2023-07-20T13:39:50;4.22;;;0.50;;
10687;SDS011;5392;42.688;23.298;2023-07-20T13:42:16;3.60;;;0.75;;
10687;SDS011;5392;42.688;23.298;2023-07-20T13:44:45;5.72;;;0.40;;
10687;SDS011;5392;42.688;23.298;2023-07-20T13:47:12;4.70;;;0.60;;
10687;SDS011;5392;42.688;23.298;2023-07-20T13:49:43;4.78;;;0.60;;
10687;SDS011;5392;42.688;23.298;2023-07-20T13:52:13;3.28;;;0.47;;
10687;SDS011;5392;42.688;23.298;2023-07-20T13:54:43;2.03;;;0.50;;
10687;SDS011;5392;42.688;23.298;2023-07-20T13:57:13;3.60;;;0.50;;
10687;SDS011;5392;42.688;23.298;2023-07-20T13:59:41;2.85;;;0.50;;
10687;SDS011;5392;42.688;23.298;2023-07-20T14:02:08;4.30;;;0.40;;
10687;SDS011;5392;42.688;23.298;2023-07-20T14:04:38;4.03;;;0.55;;
10687;SDS011;5392;42.688;23.298;2023-07-20T14:07:04;2.95;;;0.70;;
10687;SDS011;5392;42.688;23.298;2023-07-20T14:09:32;1.92;;;0.40;;
10687;SDS011;5392;42.688;23.298;2023-07-20T14:11:59;5.43;;;0.45;;
10687;SDS011;5392;42.688;23.298;2023-07-20T14:14:28;3.75;;;0.60;;
10687;SDS011;5392;42.688;23.298;2023-07-20T14:16:55;4.13;;;0.40;;
10687;SDS011;5392;42.688;23.298;2023-07-20T14:19:22;7.35;;;0.55;;
10687;SDS011;5392;42.688;23.298;2023-07-20T14:21:49;5.85;;;0.50;;
10687;SDS011;5392;42.688;23.298;2023-07-20T14:24:16;2.40;;;0.40;;
10687;SDS011;5392;42.688;23.298;2023-07-20T14:26:44;4.82;;;0.60;;
10687;SDS011;5392;42.688;23.298;2023-07-20T14:29:12;2.53;;;0.63;;
10687;SDS011;5392;42.688;23.298;2023-07-20T14:31:39;3.92;;;0.57;;
10687;SDS011;5392;42.688;23.298;2023-07-20T14:34:06;4.50;;;0.60;;
10687;SDS011;5392;42.688;23.298;2023-07-20T14:36:32;1.58;;;0.60;;
10687;SDS011;5392;42.688;23.298;2023-07-20T14:39:00;2.08;;;0.60;;
10687;SDS011;5392;42.688;23.298;2023-07-20T14:41:26;5.53;;;0.60;;
10687;SDS011;5392;42.688;23.298;2023-07-20T14:43:53;3.25;;;0.50;;
10687;SDS011;5392;42.688;23.298;2023-07-20T14:46:20;5.85;;;0.50;;
10687;SDS011;5392;42.688;23.298;2023-07-20T14:48:47;3.30;;;0.70;;
10687;SDS011;5392;42.688;23.298;2023-07-20T14:51:14;6.40;;;0.80;;
10687;SDS011;5392;42.688;23.298;2023-07-20T14:53:41;4.28;;;0.43;;
10687;SDS011;5392;42.688;23.298;2023-07-20T14:56:08;2.38;;;0.50;;
10687;SDS011;5392;42.688;23.298;2023-07-20T14:58:35;8.00;;;0.60;;
10687;SDS011;5392;42.688;23.298;2023-07-20T15:01:02;3.97;;;0.77;;
10687;SDS011;5392;42.688;23.298;2023-07-20T15:03:30;2.58;;;0.60;;
10687;SDS011;5392;42.688;23.298;2023-07-20T15:06:00;2.63;;;0.50;;
10687;SDS011;5392;42.688;23.298;2023-07-20T15:08:27;6.55;;;0.70;;
10687;SDS011;5392;42.688;23.298;2023-07-20T15:10:54;1.25;;;0.50;;